Capay, California
Current Conditions -  °F | °C
As of 12:53 AM on Thursday 23 Oct 2014 (Local Time) from KVCB Reporting Station
Clear Clear  
Wind Chill: 61°   Ceiling: Unl
Heat Index: 61°   Visibility: 10mi
Dew Point: 50°   Wind: 3mph
Humidity: 67%   Direction: 230°SW
Pressure: 30.01"   Gusts: NA
Location:  38.7°N, 122.04°W
Report Text: KVCB 230753Z AUTO 23003KT 10SM CLR 16/10 A3001 RMK AO2 SLP161 T01610100 402560078 TSNO
Loading
Personal Weather Stations






























Interactive Weather Map
Tropical Storm Tracking
New forecast layout! Learn more

10-Day Weather Forecast

Advertisements
Track Severe Weather on mobile